Manakin Sabot, Virginia
Current Conditions -  °F | °C
As of 6:54 AM on Sunday 21 Dec 2014 (Local Time) from KOFP Reporting Station
Overcast Overcast  
Wind Chill:   Ceiling: 6500
Heat Index:   Visibility: 10mi
Dew Point: -3°   Wind: 0mph
Humidity: 78%   Direction: NA
Pressure: 30.34"   Gusts: NA
Location:  37.65°N, 77.72°W
Report Text: KOFP 211154Z AUTO 00000KT 10SM OVC065 01/M03 A3034 RMK AO2 SLP274 T00061028 10006 20006 53009
Loading
Personal Weather Stations






























Interactive Weather Map New forecast layout! Learn more

10-Day Weather Forecast

Advertisements
Track Severe Weather on mobile